Time;durP1;ratioP1;P1;durP2;ratioP2;P2;SDS_P1;SDS_P2;PMS_P1;PMS_P2;Temp;Humidity;BMP_temperature;BMP_pressure;BME280_temperature;BME280_humidity;BME280_pressure;Samples;Min_cycle;Max_cycle;Signal;HPM_P1;HPM_P2
2023/02/06 00:01:22;;;;;;;17.00;5.57;;;;;;;;;;4920576;29;20084;-78
2023/02/06 00:03:48;;;;;;;12.70;5.43;;;;;;;;;;4930619;29;20424;-76
2023/02/06 00:06:14;;;;;;;12.60;5.60;;;;;;;;;;4930841;29;20114;-81
2023/02/06 00:08:40;;;;;;;9.02;5.55;;;;;;;;;;4924659;29;20036;-79
2023/02/06 00:11:07;;;;;;;11.43;6.00;;;;;;;;;;4939501;29;20114;-79
2023/02/06 00:13:34;;;;;;;12.25;5.88;;;;;;;;;;4920850;29;20031;-77
2023/02/06 00:16:00;;;;;;;11.70;5.65;;;;;;;;;;4938207;29;20418;-79
2023/02/06 00:18:26;;;;;;;8.50;4.90;;;;;;;;;;4929589;29;20338;-77
2023/02/06 00:20:52;;;;;;;14.27;5.43;;;;;;;;;;4923059;29;20028;-78
2023/02/06 00:23:18;;;;;;;9.77;6.60;;;;;;;;;;4920450;29;20020;-76
2023/02/06 00:25:44;;;;;;;16.15;7.35;;;;;;;;;;4943684;29;20035;-74
2023/02/06 00:28:10;;;;;;;12.65;6.10;;;;;;;;;;4926673;29;20024;-76
2023/02/06 00:30:36;;;;;;;13.63;7.60;;;;;;;;;;4938788;29;20031;-78
2023/02/06 00:33:03;;;;;;;19.13;8.18;;;;;;;;;;4910473;29;20451;-75
2023/02/06 00:35:29;;;;;;;14.63;7.20;;;;;;;;;;4938183;29;20028;-78
2023/02/06 00:37:55;;;;;;;11.65;6.63;;;;;;;;;;4930449;29;20030;-76
2023/02/06 00:40:21;;;;;;;15.27;7.05;;;;;;;;;;4928178;29;20020;-77
2023/02/06 00:42:47;;;;;;;14.70;8.02;;;;;;;;;;4933986;29;20043;-77
2023/02/06 00:45:13;;;;;;;14.63;8.27;;;;;;;;;;4923982;29;20020;-78
2023/02/06 00:47:39;;;;;;;16.67;9.00;;;;;;;;;;4930820;29;20031;-78
2023/02/06 00:50:05;;;;;;;13.55;8.25;;;;;;;;;;4929218;29;20042;-76
2023/02/06 00:52:31;;;;;;;18.80;7.82;;;;;;;;;;4931919;29;20038;-77
2023/02/06 00:54:57;;;;;;;13.45;7.65;;;;;;;;;;4928080;29;20387;-79
2023/02/06 00:57:23;;;;;;;15.68;6.72;;;;;;;;;;4936744;29;20024;-79
2023/02/06 00:59:50;;;;;;;14.50;8.15;;;;;;;;;;4925288;29;20047;-78
2023/02/06 01:02:16;;;;;;;14.40;7.75;;;;;;;;;;4936712;29;20035;-78
2023/02/06 01:04:42;;;;;;;19.35;9.02;;;;;;;;;;4940496;29;20227;-77
2023/02/06 01:07:08;;;;;;;16.85;7.78;;;;;;;;;;4926561;29;20036;-77
2023/02/06 01:09:34;;;;;;;16.02;8.18;;;;;;;;;;4929517;29;20040;-77
2023/02/06 01:12:00;;;;;;;12.50;7.65;;;;;;;;;;4941429;29;20072;-78
2023/02/06 01:14:26;;;;;;;13.73;8.48;;;;;;;;;;4935768;29;20025;-78
2023/02/06 01:16:52;;;;;;;13.05;7.65;;;;;;;;;;4933342;28;20054;-76
2023/02/06 01:19:18;;;;;;;18.38;9.05;;;;;;;;;;4937148;29;20023;-77
2023/02/06 01:21:44;;;;;;;14.95;7.80;;;;;;;;;;4933350;29;20020;-78
2023/02/06 01:24:10;;;;;;;14.15;8.23;;;;;;;;;;4924842;29;20106;-77
2023/02/06 01:26:36;;;;;;;13.73;7.75;;;;;;;;;;4924909;29;20028;-75
2023/02/06 01:29:03;;;;;;;18.33;7.78;;;;;;;;;;4936231;29;20031;-77
2023/02/06 01:31:30;;;;;;;10.20;7.75;;;;;;;;;;4930685;29;20111;-78
2023/02/06 01:33:58;;;;;;;15.93;7.82;;;;;;;;;;4940899;29;20047;-76
2023/02/06 01:36:24;;;;;;;10.90;6.72;;;;;;;;;;4939759;29;20030;-78
2023/02/06 01:38:50;;;;;;;13.80;8.57;;;;;;;;;;4937750;29;20024;-76
2023/02/06 01:41:18;;;;;;;15.52;8.00;;;;;;;;;;4937024;29;20034;-78
2023/02/06 01:43:45;;;;;;;14.48;7.85;;;;;;;;;;4923090;29;20024;-78
2023/02/06 01:46:11;;;;;;;12.63;7.80;;;;;;;;;;4931927;29;20042;-77
2023/02/06 01:48:53;;;;;;;16.10;7.55;;;;;;;;;;4931721;29;20062;-75
2023/02/06 01:51:21;;;;;;;12.52;6.97;;;;;;;;;;4932835;29;20350;-77
2023/02/06 01:53:49;;;;;;;10.20;6.50;;;;;;;;;;4928781;29;20028;-78
2023/02/06 01:56:18;;;;;;;12.00;5.97;;;;;;;;;;4931967;29;20058;-78
2023/02/06 01:58:45;;;;;;;12.82;7.72;;;;;;;;;;4941023;29;20022;-76
2023/02/06 02:01:12;;;;;;;10.55;6.45;;;;;;;;;;4934733;29;20028;-76
2023/02/06 02:03:39;;;;;;;11.65;6.00;;;;;;;;;;4929095;29;20028;-78
2023/02/06 02:06:11;;;;;;;10.02;6.30;;;;;;;;;;4921943;29;20027;-79
2023/02/06 02:08:39;;;;;;;9.93;6.53;;;;;;;;;;4936715;29;20032;-78
2023/02/06 02:11:06;;;;;;;12.93;6.70;;;;;;;;;;4914132;29;20048;-77
2023/02/06 02:13:33;;;;;;;11.30;5.57;;;;;;;;;;4915968;29;20361;-76
2023/02/06 02:16:25;;;;;;;12.77;6.53;;;;;;;;;;4916978;29;20060;-74
2023/02/06 02:19:03;;;;;;;11.00;5.50;;;;;;;;;;4908690;29;20044;-78
2023/02/06 02:21:45;;;;;;;13.55;5.78;;;;;;;;;;4907521;29;20037;-77
2023/02/06 02:24:15;;;;;;;14.65;7.03;;;;;;;;;;4908362;29;20055;-77
2023/02/06 02:26:44;;;;;;;8.18;4.72;;;;;;;;;;4912375;29;20075;-78
2023/02/06 02:29:29;;;;;;;8.00;4.60;;;;;;;;;;4910649;29;20060;-77
2023/02/06 02:31:55;;;;;;;14.63;5.03;;;;;;;;;;4908710;29;20131;-80
2023/02/06 02:34:27;;;;;;;6.40;3.50;;;;;;;;;;4903174;29;20025;-76
2023/02/06 02:37:04;;;;;;;8.05;4.40;;;;;;;;;;4909180;29;20292;-78
2023/02/06 02:39:55;;;;;;;9.60;4.85;;;;;;;;;;4894532;29;20028;-78
2023/02/06 02:42:44;;;;;;;12.68;4.88;;;;;;;;;;4912207;29;20673;-76
2023/02/06 02:45:21;;;;;;;9.30;5.07;;;;;;;;;;4913036;29;20064;-78
2023/02/06 02:47:57;;;;;;;6.85;3.67;;;;;;;;;;4910548;29;20088;-78
2023/02/06 02:50:24;;;;;;;8.15;3.40;;;;;;;;;;4902088;29;20071;-77
2023/02/06 02:52:50;;;;;;;9.40;3.42;;;;;;;;;;4915268;29;20570;-79
2023/02/06 02:55:22;;;;;;;7.55;3.53;;;;;;;;;;4918273;29;20059;-76
2023/02/06 02:57:51;;;;;;;7.07;3.10;;;;;;;;;;4916407;29;20029;-76
2023/02/06 03:00:17;;;;;;;5.03;3.42;;;;;;;;;;4914685;29;20028;-75
2023/02/06 03:02:45;;;;;;;6.03;3.10;;;;;;;;;;4917996;29;20415;-79
2023/02/06 03:05:14;;;;;;;5.35;2.72;;;;;;;;;;4915325;29;20032;-77
2023/02/06 03:07:44;;;;;;;4.65;2.60;;;;;;;;;;4912193;29;20036;-77
2023/02/06 03:10:29;;;;;;;5.93;2.80;;;;;;;;;;4929843;29;20043;-77
2023/02/06 03:12:58;;;;;;;5.60;2.70;;;;;;;;;;4936956;29;20032;-75
2023/02/06 03:15:26;;;;;;;6.00;2.85;;;;;;;;;;4938508;29;20031;-78
2023/02/06 03:17:58;;;;;;;6.80;2.92;;;;;;;;;;4923189;29;20043;-75
2023/02/06 03:20:24;;;;;;;7.50;3.13;;;;;;;;;;4938718;29;20027;-77
2023/02/06 03:22:51;;;;;;;6.28;3.08;;;;;;;;;;4917946;29;20095;-79
2023/02/06 03:25:20;;;;;;;7.78;3.50;;;;;;;;;;4924674;29;20115;-78
2023/02/06 03:27:47;;;;;;;10.27;2.65;;;;;;;;;;4932083;29;20138;-78
2023/02/06 03:30:14;;;;;;;7.47;3.17;;;;;;;;;;4936072;29;20031;-78
2023/02/06 03:32:42;;;;;;;6.25;2.80;;;;;;;;;;4928806;29;20034;-78
2023/02/06 03:35:13;;;;;;;5.05;2.38;;;;;;;;;;4937997;29;20055;-77
2023/02/06 03:37:39;;;;;;;4.22;2.60;;;;;;;;;;4932512;29;20542;-78
2023/02/06 03:40:06;;;;;;;6.68;2.67;;;;;;;;;;4929023;29;20027;-78
2023/02/06 03:42:33;;;;;;;5.05;2.45;;;;;;;;;;4937517;29;20056;-79
2023/02/06 03:45:05;;;;;;;6.25;2.30;;;;;;;;;;4935633;29;20083;-74
2023/02/06 03:47:33;;;;;;;11.75;2.53;;;;;;;;;;4936012;29;20111;-77
2023/02/06 03:50:00;;;;;;;7.03;2.22;;;;;;;;;;4905290;29;20024;-77
2023/02/06 03:52:28;;;;;;;5.43;2.78;;;;;;;;;;4927464;29;20036;-77
2023/02/06 03:54:58;;;;;;;4.50;2.25;;;;;;;;;;4936431;29;20035;-79
2023/02/06 03:57:25;;;;;;;4.90;2.20;;;;;;;;;;4938022;29;20046;-77
2023/02/06 03:59:51;;;;;;;5.63;2.75;;;;;;;;;;4923570;29;20020;-75
2023/02/06 04:02:17;;;;;;;6.15;2.22;;;;;;;;;;4935499;29;20043;-76
2023/02/06 04:04:44;;;;;;;4.43;2.15;;;;;;;;;;4933695;29;20060;-76
2023/02/06 04:07:11;;;;;;;3.75;2.38;;;;;;;;;;4934487;29;20023;-75
2023/02/06 04:09:38;;;;;;;3.67;1.90;;;;;;;;;;4941414;29;20450;-76
2023/02/06 04:12:04;;;;;;;8.18;2.45;;;;;;;;;;4943187;29;20024;-80
2023/02/06 04:14:30;;;;;;;4.57;2.78;;;;;;;;;;4931989;29;20075;-75
2023/02/06 04:16:56;;;;;;;4.55;2.35;;;;;;;;;;4934842;29;20063;-74
2023/02/06 04:19:22;;;;;;;4.45;3.35;;;;;;;;;;4938558;29;20107;-75
2023/02/06 04:21:48;;;;;;;7.95;2.78;;;;;;;;;;4939515;29;20043;-78
2023/02/06 04:24:15;;;;;;;4.32;2.58;;;;;;;;;;4935633;29;20432;-75
2023/02/06 04:26:41;;;;;;;5.30;2.17;;;;;;;;;;4936268;29;20032;-76
2023/02/06 04:29:07;;;;;;;3.28;2.22;;;;;;;;;;4927639;29;20055;-80
2023/02/06 04:31:33;;;;;;;6.28;2.28;;;;;;;;;;4927693;29;20387;-78
2023/02/06 04:33:59;;;;;;;5.03;2.50;;;;;;;;;;4946631;29;20035;-79
2023/02/06 04:36:25;;;;;;;6.57;3.20;;;;;;;;;;4928775;29;20027;-78
2023/02/06 04:38:51;;;;;;;4.30;2.30;;;;;;;;;;4929988;29;20091;-77
2023/02/06 04:41:17;;;;;;;2.65;2.20;;;;;;;;;;4924171;29;20062;-77
2023/02/06 04:43:43;;;;;;;4.70;2.40;;;;;;;;;;4934606;29;20028;-77
2023/02/06 04:46:09;;;;;;;4.22;2.17;;;;;;;;;;4928234;29;20035;-78
2023/02/06 04:48:36;;;;;;;5.28;2.50;;;;;;;;;;4921857;29;20499;-77
2023/02/06 04:51:02;;;;;;;3.90;2.13;;;;;;;;;;4922173;29;20038;-78
2023/02/06 04:53:28;;;;;;;5.10;2.20;;;;;;;;;;4927840;29;20032;-76
2023/02/06 04:56:01;;;;;;;7.53;2.50;;;;;;;;;;4941427;29;20146;-78
2023/02/06 04:58:27;;;;;;;6.80;2.40;;;;;;;;;;4943607;29;20043;-78
2023/02/06 05:00:53;;;;;;;6.03;2.28;;;;;;;;;;4929847;29;20026;-77
2023/02/06 05:03:19;;;;;;;3.72;2.00;;;;;;;;;;4925253;29;20016;-77
2023/02/06 05:05:45;;;;;;;6.97;2.53;;;;;;;;;;4907358;29;20028;-78
2023/02/06 05:08:11;;;;;;;2.95;2.42;;;;;;;;;;4926052;29;20020;-77
2023/02/06 05:10:37;;;;;;;5.63;2.00;;;;;;;;;;4945334;29;20044;-79
2023/02/06 05:13:03;;;;;;;3.80;1.98;;;;;;;;;;4914191;29;20068;-79
2023/02/06 05:15:29;;;;;;;4.43;2.17;;;;;;;;;;4924483;29;20064;-76
2023/02/06 05:17:55;;;;;;;2.33;2.00;;;;;;;;;;4932326;29;20050;-79
2023/02/06 05:20:21;;;;;;;3.85;2.08;;;;;;;;;;4935363;29;20544;-77
2023/02/06 05:22:47;;;;;;;3.85;2.33;;;;;;;;;;4921194;29;20036;-76
2023/02/06 05:25:13;;;;;;;2.60;2.38;;;;;;;;;;4930626;29;20023;-81
2023/02/06 05:27:40;;;;;;;5.10;2.30;;;;;;;;;;4926353;29;20043;-80
2023/02/06 05:30:06;;;;;;;2.88;2.03;;;;;;;;;;4934641;29;20035;-77
2023/02/06 05:32:32;;;;;;;4.80;2.45;;;;;;;;;;4925524;29;20032;-79
2023/02/06 05:34:58;;;;;;;5.22;2.70;;;;;;;;;;4932840;29;20032;-78
2023/02/06 05:37:24;;;;;;;6.60;2.30;;;;;;;;;;4923777;29;20028;-78
2023/02/06 05:39:50;;;;;;;7.32;2.60;;;;;;;;;;4924444;29;20028;-79
2023/02/06 05:42:16;;;;;;;4.80;2.40;;;;;;;;;;4917228;29;20028;-77
2023/02/06 05:44:42;;;;;;;5.65;2.33;;;;;;;;;;4929126;29;20451;-77
2023/02/06 05:47:08;;;;;;;4.75;2.20;;;;;;;;;;4903574;29;20032;-78
2023/02/06 05:49:35;;;;;;;4.30;2.22;;;;;;;;;;4928143;29;20120;-77
2023/02/06 05:52:01;;;;;;;2.20;1.98;;;;;;;;;;4906242;29;20059;-78
2023/02/06 05:54:27;;;;;;;5.57;2.28;;;;;;;;;;4920541;29;20103;-78
2023/02/06 05:56:55;;;;;;;6.70;2.67;;;;;;;;;;4923123;29;20506;-77
2023/02/06 05:59:22;;;;;;;8.07;2.50;;;;;;;;;;4923211;29;20043;-79
2023/02/06 06:01:48;;;;;;;3.80;2.00;;;;;;;;;;4919276;29;20514;-79
2023/02/06 06:04:14;;;;;;;5.82;2.53;;;;;;;;;;4931391;29;20387;-77
2023/02/06 06:06:40;;;;;;;3.08;2.10;;;;;;;;;;4935553;29;20030;-78
2023/02/06 06:09:06;;;;;;;4.90;2.15;;;;;;;;;;4928787;29;20573;-79
2023/02/06 06:11:32;;;;;;;5.28;2.10;;;;;;;;;;4937774;29;20059;-78
2023/02/06 06:13:59;;;;;;;4.65;2.20;;;;;;;;;;4933361;29;20497;-76
2023/02/06 06:16:25;;;;;;;6.00;2.60;;;;;;;;;;4934462;29;20539;-78
2023/02/06 06:18:51;;;;;;;7.28;3.35;;;;;;;;;;4930191;29;20016;-78
2023/02/06 06:21:17;;;;;;;3.42;2.47;;;;;;;;;;4929607;29;20024;-77
2023/02/06 06:23:43;;;;;;;3.95;2.50;;;;;;;;;;4931917;29;20020;-78
2023/02/06 06:26:09;;;;;;;5.03;2.38;;;;;;;;;;4926067;29;20106;-78
2023/02/06 06:28:37;;;;;;;6.80;2.55;;;;;;;;;;4936191;29;20028;-77
2023/02/06 06:31:04;;;;;;;4.22;2.55;;;;;;;;;;4932684;29;20590;-77
2023/02/06 06:33:30;;;;;;;3.33;2.10;;;;;;;;;;4934567;29;20039;-78
2023/02/06 06:35:56;;;;;;;5.38;2.50;;;;;;;;;;4930006;29;20040;-79
2023/02/06 06:38:22;;;;;;;5.20;2.60;;;;;;;;;;4930856;29;20099;-77
2023/02/06 06:40:49;;;;;;;4.65;2.40;;;;;;;;;;4935254;29;20036;-78
2023/02/06 06:43:15;;;;;;;7.05;2.20;;;;;;;;;;4938583;29;20026;-75
2023/02/06 06:45:41;;;;;;;5.13;2.15;;;;;;;;;;4936074;29;20044;-78
2023/02/06 06:48:07;;;;;;;3.88;2.20;;;;;;;;;;4933333;29;20027;-78
2023/02/06 06:50:33;;;;;;;4.85;2.15;;;;;;;;;;4939391;29;20581;-77
2023/02/06 06:52:59;;;;;;;7.10;2.72;;;;;;;;;;4934816;29;20330;-76
2023/02/06 06:55:25;;;;;;;2.25;1.88;;;;;;;;;;4938279;29;20048;-76
2023/02/06 06:57:51;;;;;;;5.22;1.90;;;;;;;;;;4938051;29;20031;-76
2023/02/06 07:00:17;;;;;;;3.55;1.80;;;;;;;;;;4931186;29;20062;-77
2023/02/06 07:02:43;;;;;;;3.55;1.83;;;;;;;;;;4928836;29;20430;-77
2023/02/06 07:05:10;;;;;;;2.05;1.90;;;;;;;;;;4918757;29;20024;-77
2023/02/06 07:07:38;;;;;;;4.57;1.95;;;;;;;;;;4936293;29;20032;-77
2023/02/06 07:10:05;;;;;;;3.83;1.85;;;;;;;;;;4929245;29;20635;-79
2023/02/06 07:12:31;;;;;;;3.28;1.90;;;;;;;;;;4941826;29;20048;-78
2023/02/06 07:14:57;;;;;;;4.88;2.47;;;;;;;;;;4932066;29;20036;-78
2023/02/06 07:17:23;;;;;;;5.18;2.30;;;;;;;;;;4913841;29;20040;-76
2023/02/06 07:19:51;;;;;;;2.83;1.90;;;;;;;;;;4940894;29;20403;-77
2023/02/06 07:22:17;;;;;;;2.97;1.77;;;;;;;;;;4944704;29;20062;-77
2023/02/06 07:24:43;;;;;;;4.15;1.90;;;;;;;;;;4929631;29;20032;-76
2023/02/06 07:27:09;;;;;;;1.98;1.60;;;;;;;;;;4942567;29;20040;-78
2023/02/06 07:29:36;;;;;;;2.53;1.65;;;;;;;;;;4941900;29;20071;-78
2023/02/06 07:32:02;;;;;;;2.08;1.85;;;;;;;;;;4934816;29;20032;-77
2023/02/06 07:34:29;;;;;;;3.45;2.30;;;;;;;;;;4932259;29;20600;-76
2023/02/06 07:36:55;;;;;;;6.95;1.80;;;;;;;;;;4929737;29;20047;-77
2023/02/06 07:39:21;;;;;;;2.17;1.98;;;;;;;;;;4936836;29;20088;-79
2023/02/06 07:41:49;;;;;;;4.22;1.95;;;;;;;;;;4937106;29;20016;-77
2023/02/06 07:44:15;;;;;;;4.15;2.00;;;;;;;;;;4936276;29;20042;-82
2023/02/06 07:46:42;;;;;;;4.13;1.73;;;;;;;;;;4937424;29;20057;-76
2023/02/06 07:49:08;;;;;;;3.60;2.30;;;;;;;;;;4937570;29;20120;-76
2023/02/06 07:51:34;;;;;;;2.28;2.08;;;;;;;;;;4943140;29;20509;-76
2023/02/06 07:54:01;;;;;;;6.38;2.42;;;;;;;;;;4927521;29;20027;-79
2023/02/06 07:56:27;;;;;;;4.70;2.05;;;;;;;;;;4941734;29;20097;-76
2023/02/06 07:58:53;;;;;;;3.72;2.00;;;;;;;;;;4943205;29;20028;-77
2023/02/06 08:01:20;;;;;;;5.07;2.10;;;;;;;;;;4941955;29;20028;-77
2023/02/06 08:03:53;;;;;;;7.43;2.58;;;;;;;;;;4940795;29;20439;-77
2023/02/06 08:06:20;;;;;;;4.95;2.38;;;;;;;;;;4928565;29;20027;-77
2023/02/06 08:08:46;;;;;;;4.50;2.80;;;;;;;;;;4923561;29;20066;-78
2023/02/06 08:11:13;;;;;;;4.22;2.60;;;;;;;;;;4926001;29;20565;-79
2023/02/06 08:13:40;;;;;;;3.25;2.92;;;;;;;;;;4945589;29;20039;-76
2023/02/06 08:16:07;;;;;;;3.00;2.30;;;;;;;;;;4933119;29;20077;-75
2023/02/06 08:18:34;;;;;;;6.65;2.92;;;;;;;;;;4933940;29;20031;-76
2023/02/06 08:21:03;;;;;;;4.28;2.58;;;;;;;;;;4936000;29;20020;-75
2023/02/06 08:23:30;;;;;;;4.28;3.10;;;;;;;;;;4936991;29;20114;-79
2023/02/06 08:26:03;;;;;;;5.90;3.10;;;;;;;;;;4931191;29;20379;-76
2023/02/06 08:28:29;;;;;;;6.03;2.58;;;;;;;;;;4932556;29;20034;-76
2023/02/06 08:30:55;;;;;;;4.18;2.60;;;;;;;;;;4923620;29;20070;-75
2023/02/06 08:33:22;;;;;;;5.28;3.03;;;;;;;;;;4943121;29;20060;-77
2023/02/06 08:35:48;;;;;;;6.03;3.05;;;;;;;;;;4913494;29;20043;-78
2023/02/06 08:38:14;;;;;;;3.72;2.97;;;;;;;;;;4939102;29;20502;-77
2023/02/06 08:40:41;;;;;;;8.10;2.72;;;;;;;;;;4918661;29;20062;-77
2023/02/06 08:43:07;;;;;;;12.57;3.70;;;;;;;;;;4941022;29;20030;-77
2023/02/06 08:45:33;;;;;;;5.75;2.55;;;;;;;;;;4939437;29;20032;-79
2023/02/06 08:47:59;;;;;;;4.97;2.45;;;;;;;;;;4940022;29;20106;-76
2023/02/06 08:50:25;;;;;;;5.20;2.95;;;;;;;;;;4945136;29;20083;-77
2023/02/06 08:52:51;;;;;;;6.88;2.58;;;;;;;;;;4939791;29;20095;-77
2023/02/06 08:55:17;;;;;;;7.25;2.60;;;;;;;;;;4938801;29;20028;-77
2023/02/06 08:57:43;;;;;;;3.58;2.70;;;;;;;;;;4946238;29;20036;-77
2023/02/06 09:00:09;;;;;;;12.25;4.05;;;;;;;;;;4941630;29;20043;-79
2023/02/06 09:02:35;;;;;;;9.52;3.10;;;;;;;;;;4943469;29;20164;-77
2023/02/06 09:05:02;;;;;;;6.50;2.22;;;;;;;;;;4941420;29;20039;-77
2023/02/06 09:07:28;;;;;;;8.38;2.97;;;;;;;;;;4942276;29;20028;-78
2023/02/06 09:09:54;;;;;;;9.65;2.80;;;;;;;;;;4923951;29;20051;-79
2023/02/06 09:12:20;;;;;;;10.77;3.10;;;;;;;;;;4941464;29;20028;-77
2023/02/06 09:14:46;;;;;;;4.90;2.33;;;;;;;;;;4940601;29;20111;-78
2023/02/06 09:17:12;;;;;;;7.18;3.28;;;;;;;;;;4944359;29;20031;-78
2023/02/06 09:19:38;;;;;;;4.90;2.88;;;;;;;;;;4920459;29;20048;-79
2023/02/06 09:22:05;;;;;;;5.85;2.30;;;;;;;;;;4932598;29;20028;-74
2023/02/06 09:24:31;;;;;;;5.25;2.35;;;;;;;;;;4941981;29;20048;-76
2023/02/06 09:26:57;;;;;;;7.40;3.58;;;;;;;;;;4945901;29;20054;-75
2023/02/06 09:29:23;;;;;;;8.45;3.05;;;;;;;;;;4948778;29;20055;-73
2023/02/06 09:31:49;;;;;;;12.70;3.05;;;;;;;;;;4939503;29;20387;-74
2023/02/06 09:34:15;;;;;;;8.68;3.45;;;;;;;;;;4920191;29;20368;-75
2023/02/06 09:36:42;;;;;;;7.43;2.83;;;;;;;;;;4926163;29;20031;-77
2023/02/06 09:39:08;;;;;;;5.47;2.50;;;;;;;;;;4945631;29;20027;-75
2023/02/06 09:41:34;;;;;;;5.85;2.75;;;;;;;;;;4943595;29;20027;-76
2023/02/06 09:44:03;;;;;;;4.80;2.63;;;;;;;;;;4923003;29;20028;-75
2023/02/06 09:46:31;;;;;;;3.45;2.47;;;;;;;;;;4937829;29;20427;-76
2023/02/06 09:48:58;;;;;;;9.27;2.40;;;;;;;;;;4942568;29;20109;-78
2023/02/06 09:51:59;;;;;;;11.80;3.55;;;;;;;;;;4937162;29;20024;-78
2023/02/06 09:54:42;;;;;;;7.97;3.83;;;;;;;;;;4840272;29;20033;-78
2023/02/06 09:57:19;;;;;;;11.02;5.53;;;;;;;;;;4925125;29;20035;-77
2023/02/06 09:59:51;;;;;;;11.25;3.70;;;;;;;;;;4934730;29;20102;-78
2023/02/06 10:02:20;;;;;;;6.95;3.70;;;;;;;;;;4938014;29;20091;-77
2023/02/06 10:04:49;;;;;;;9.68;3.38;;;;;;;;;;4935711;29;20019;-77
2023/02/06 10:07:21;;;;;;;6.95;4.72;;;;;;;;;;4933273;29;20054;-79
2023/02/06 10:09:53;;;;;;;9.38;3.38;;;;;;;;;;4933026;29;20062;-77
2023/02/06 10:12:46;;;;;;;5.32;2.40;;;;;;;;;;4912552;29;20051;-77
2023/02/06 10:15:17;;;;;;;6.55;3.30;;;;;;;;;;4895398;29;20139;-78
2023/02/06 10:17:49;;;;;;;9.18;3.30;;;;;;;;;;4926656;29;20042;-78
2023/02/06 10:20:20;;;;;;;4.75;3.30;;;;;;;;;;4930593;29;20028;-76
2023/02/06 10:23:04;;;;;;;5.75;2.78;;;;;;;;;;4921652;29;20042;-77
2023/02/06 10:25:35;;;;;;;2.90;2.25;;;;;;;;;;4926023;29;20023;-77
2023/02/06 10:28:02;;;;;;;3.28;2.15;;;;;;;;;;4930995;29;20032;-76
2023/02/06 10:30:41;;;;;;;5.82;2.67;;;;;;;;;;4931635;29;20066;-77
2023/02/06 10:33:22;;;;;;;3.65;2.17;;;;;;;;;;4925896;29;20035;-78
2023/02/06 10:36:04;;;;;;;2.72;2.10;;;;;;;;;;4937616;29;20032;-79
2023/02/06 10:38:38;;;;;;;4.05;2.42;;;;;;;;;;4927552;29;20390;-76
2023/02/06 10:41:08;;;;;;;4.45;2.42;;;;;;;;;;4925862;29;20027;-81
2023/02/06 10:43:39;;;;;;;4.80;2.70;;;;;;;;;;4926659;29;20039;-76
2023/02/06 10:46:23;;;;;;;5.90;2.65;;;;;;;;;;4927977;29;20115;-76
2023/02/06 10:48:57;;;;;;;5.80;2.00;;;;;;;;;;4939926;29;20060;-76
2023/02/06 10:51:30;;;;;;;5.32;2.28;;;;;;;;;;4924588;29;20029;-77
2023/02/06 10:54:25;;;;;;;5.15;2.58;;;;;;;;;;4930013;29;20027;-78
2023/02/06 10:56:52;;;;;;;5.43;2.53;;;;;;;;;;4914576;29;20074;-78
2023/02/06 10:59:42;;;;;;;6.63;2.92;;;;;;;;;;4937688;29;20023;-77
2023/02/06 11:02:30;;;;;;;4.78;2.45;;;;;;;;;;4921208;29;20346;-77
2023/02/06 11:05:00;;;;;;;6.20;2.10;;;;;;;;;;4923933;29;20431;-76
2023/02/06 11:07:29;;;;;;;6.18;2.70;;;;;;;;;;4927031;29;20046;-77
2023/02/06 11:09:55;;;;;;;2.70;1.98;;;;;;;;;;4917003;29;20060;-79
2023/02/06 11:12:30;;;;;;;3.88;2.03;;;;;;;;;;4913602;29;20043;-78
2023/02/06 11:14:58;;;;;;;6.70;2.40;;;;;;;;;;4915553;29;20095;-77
2023/02/06 11:17:27;;;;;;;7.95;2.20;;;;;;;;;;4912265;29;20037;-78
2023/02/06 11:19:58;;;;;;;8.20;3.10;;;;;;;;;;4909394;29;20021;-79
2023/02/06 11:22:29;;;;;;;5.15;2.00;;;;;;;;;;4905028;29;20021;-78
2023/02/06 11:25:00;;;;;;;5.10;2.75;;;;;;;;;;4912248;29;20502;-81
2023/02/06 11:27:27;;;;;;;7.20;2.10;;;;;;;;;;4904658;29;20407;-79
2023/02/06 11:29:53;;;;;;;5.72;1.90;;;;;;;;;;4914059;29;20036;-78
2023/02/06 11:32:29;;;;;;;8.55;2.30;;;;;;;;;;4911477;29;20040;-78
2023/02/06 11:35:07;;;;;;;4.53;2.30;;;;;;;;;;4902821;29;20096;-79
2023/02/06 11:37:37;;;;;;;4.60;2.13;;;;;;;;;;4905875;29;20028;-78
2023/02/06 11:40:14;;;;;;;2.85;2.08;;;;;;;;;;4911120;29;20027;-79
2023/02/06 11:42:40;;;;;;;5.03;2.05;;;;;;;;;;4921514;29;20038;-78
2023/02/06 11:45:22;;;;;;;4.43;2.42;;;;;;;;;;4928863;29;20031;-79
2023/02/06 11:47:48;;;;;;;5.60;1.98;;;;;;;;;;4910313;29;20155;-77
2023/02/06 11:50:21;;;;;;;6.38;2.13;;;;;;;;;;4913050;29;20035;-78
2023/02/06 11:52:47;;;;;;;6.30;1.90;;;;;;;;;;4907976;29;20032;-78
2023/02/06 11:55:33;;;;;;;3.83;2.15;;;;;;;;;;4921754;29;20030;-77
2023/02/06 11:58:05;;;;;;;5.70;2.60;;;;;;;;;;4909907;29;20029;-79
2023/02/06 12:00:31;;;;;;;5.45;1.90;;;;;;;;;;4913571;29;20095;-78
2023/02/06 12:02:57;;;;;;;4.43;1.90;;;;;;;;;;4912210;29;20031;-78
2023/02/06 12:05:27;;;;;;;5.45;2.13;;;;;;;;;;4902781;29;20024;-79
2023/02/06 12:07:53;;;;;;;4.13;2.33;;;;;;;;;;4921465;29;20043;-78
2023/02/06 12:10:20;;;;;;;3.67;2.10;;;;;;;;;;4926108;29;20044;-79
2023/02/06 12:12:49;;;;;;;5.28;2.00;;;;;;;;;;4907742;29;20042;-78
2023/02/06 12:15:21;;;;;;;2.53;2.00;;;;;;;;;;4926994;29;20059;-79
2023/02/06 12:17:55;;;;;;;4.85;1.80;;;;;;;;;;4912782;29;20039;-79
2023/02/06 12:20:27;;;;;;;4.85;2.00;;;;;;;;;;4938326;29;20164;-79
2023/02/06 12:22:56;;;;;;;3.63;2.00;;;;;;;;;;4919210;29;20031;-79
2023/02/06 12:25:25;;;;;;;7.35;2.92;;;;;;;;;;4938413;29;20024;-79
2023/02/06 12:27:52;;;;;;;5.32;2.08;;;;;;;;;;4910511;29;20079;-79
2023/02/06 12:30:26;;;;;;;6.88;2.67;;;;;;;;;;4936817;29;20099;-78
2023/02/06 12:32:56;;;;;;;4.25;2.22;;;;;;;;;;4905187;29;20032;-80
2023/02/06 12:35:43;;;;;;;4.13;2.10;;;;;;;;;;4918248;29;20107;-79
2023/02/06 12:38:15;;;;;;;9.85;2.55;;;;;;;;;;4936029;29;20051;-80
2023/02/06 12:40:59;;;;;;;5.00;2.28;;;;;;;;;;4934967;29;20467;-78
2023/02/06 12:43:26;;;;;;;5.47;2.88;;;;;;;;;;4937382;29;20071;-77
2023/02/06 12:46:22;;;;;;;5.13;3.05;;;;;;;;;;4926740;29;20087;-79
2023/02/06 12:49:07;;;;;;;8.30;3.58;;;;;;;;;;4909600;29;20457;-80
2023/02/06 12:51:36;;;;;;;6.55;2.50;;;;;;;;;;4918837;29;20031;-78
2023/02/06 12:54:15;;;;;;;7.30;2.63;;;;;;;;;;4912775;29;20483;-78
2023/02/06 12:56:47;;;;;;;7.72;2.78;;;;;;;;;;4913715;29;20036;-76
2023/02/06 12:59:33;;;;;;;7.00;2.90;;;;;;;;;;4931889;29;20024;-77
2023/02/06 13:02:13;;;;;;;3.50;2.42;;;;;;;;;;4921159;29;20624;-76
2023/02/06 13:04:39;;;;;;;5.38;2.40;;;;;;;;;;4931180;29;20118;-77
2023/02/06 13:07:14;;;;;;;5.18;2.33;;;;;;;;;;4930908;29;20035;-75
2023/02/06 13:09:49;;;;;;;7.55;3.10;;;;;;;;;;4901023;29;20055;-79
2023/02/06 13:12:19;;;;;;;8.10;3.25;;;;;;;;;;4908814;29;20020;-76
2023/02/06 13:14:47;;;;;;;6.25;2.50;;;;;;;;;;4903890;29;20039;-79
2023/02/06 13:17:24;;;;;;;4.97;2.90;;;;;;;;;;4910314;29;20044;-77
2023/02/06 13:20:09;;;;;;;5.88;2.75;;;;;;;;;;4888273;29;20032;-76
2023/02/06 13:22:38;;;;;;;7.47;2.88;;;;;;;;;;4900161;29;20186;-79
2023/02/06 13:25:37;;;;;;;7.60;2.70;;;;;;;;;;4908467;29;20036;-77
2023/02/06 13:28:21;;;;;;;7.18;2.65;;;;;;;;;;4878124;29;20040;-76
2023/02/06 13:30:48;;;;;;;9.60;2.80;;;;;;;;;;4904042;29;20024;-76
2023/02/06 13:33:22;;;;;;;6.07;2.42;;;;;;;;;;4908448;29;20030;-77
2023/02/06 13:35:55;;;;;;;10.93;3.38;;;;;;;;;;4919635;29;20054;-78
2023/02/06 13:38:36;;;;;;;6.47;2.78;;;;;;;;;;4906587;29;20375;-79
2023/02/06 13:41:14;;;;;;;6.63;3.10;;;;;;;;;;4905571;29;20111;-79
2023/02/06 13:43:41;;;;;;;8.88;2.50;;;;;;;;;;4906448;29;20037;-78
2023/02/06 13:46:21;;;;;;;6.80;3.10;;;;;;;;;;4915682;29;20028;-77
2023/02/06 13:48:51;;;;;;;5.40;3.03;;;;;;;;;;4916056;29;20024;-77
2023/02/06 13:51:17;;;;;;;6.22;2.53;;;;;;;;;;4913755;29;20043;-80
2023/02/06 13:53:43;;;;;;;11.82;3.75;;;;;;;;;;4915241;29;20039;-78
2023/02/06 13:56:35;;;;;;;8.88;3.45;;;;;;;;;;4916593;29;20017;-80
2023/02/06 13:59:06;;;;;;;8.93;3.60;;;;;;;;;;4906691;29;20040;-78
2023/02/06 14:01:32;;;;;;;6.60;2.72;;;;;;;;;;4914052;29;20028;-77
2023/02/06 14:03:59;;;;;;;10.18;4.35;;;;;;;;;;4914027;29;20515;-78
2023/02/06 14:06:34;;;;;;;8.23;2.65;;;;;;;;;;4919429;29;20043;-79
2023/02/06 14:09:18;;;;;;;7.00;2.95;;;;;;;;;;4918849;29;20051;-80
2023/02/06 14:14:51;;;;;;;6.88;3.17;;;;;;;;;;4942740;29;20134;-79
2023/02/06 14:17:26;;;;;;;6.85;3.28;;;;;;;;;;4945393;29;20087;-78
2023/02/06 14:20:00;;;;;;;7.57;3.42;;;;;;;;;;4937959;29;20039;-79
2023/02/06 14:22:49;;;;;;;9.18;3.28;;;;;;;;;;4939325;29;20032;-78
2023/02/06 14:25:21;;;;;;;8.60;3.13;;;;;;;;;;4941027;29;20036;-77
2023/02/06 14:27:47;;;;;;;7.55;3.58;;;;;;;;;;4924172;29;20043;-78
2023/02/06 14:30:26;;;;;;;9.45;3.67;;;;;;;;;;4942881;29;20038;-78
2023/02/06 14:32:53;;;;;;;7.38;3.20;;;;;;;;;;4941194;29;20043;-80
2023/02/06 14:35:24;;;;;;;6.28;2.92;;;;;;;;;;4941366;29;20042;-79
2023/02/06 14:37:50;;;;;;;8.73;3.78;;;;;;;;;;4939293;29;20039;-78
2023/02/06 14:40:22;;;;;;;10.38;3.63;;;;;;;;;;4923590;29;20028;-80
2023/02/06 14:42:49;;;;;;;9.57;2.90;;;;;;;;;;4939218;29;20024;-77
2023/02/06 14:45:27;;;;;;;10.25;3.80;;;;;;;;;;4945489;29;20041;-77
2023/02/06 14:47:54;;;;;;;7.32;3.20;;;;;;;;;;4937496;29;20021;-78
2023/02/06 14:50:23;;;;;;;6.90;3.00;;;;;;;;;;4940676;29;20028;-77
2023/02/06 14:52:59;;;;;;;9.15;3.40;;;;;;;;;;4945896;29;20039;-79
2023/02/06 14:55:30;;;;;;;8.13;3.22;;;;;;;;;;4943567;29;20083;-78
2023/02/06 14:57:56;;;;;;;13.68;4.65;;;;;;;;;;4935954;29;20038;-78